Terminal Aerodrome Forecast
Issued by NWS Greer, SC

Home | Current Version | Previous Version | Text Only | Print | Product List | Glossary On
Versions: 1 2 3 4 5 6 7 8 9 10 11 12 13 14
000
FTUS42 KGSP 302123 AAB
TAFGSP
TAF AMD
KGSP 302123Z 3021/0118 23010KT P6SM VCSH SCT120
     FM010100 23006KT P6SM BKN060
     FM010600 24007KT P6SM SCT060
     FM011600 22007KT P6SM SCT100 PROB30 0116/0117 4SM TSRA
      BKN040CB=

USA.gov is the U.S. government's official web portal to all federal, state and local government web resources and services.